createdAt,value
2023-05-07T00:00:22.556Z,67.30
2023-05-07T00:02:49.335Z,67.30
2023-05-07T00:05:16.302Z,67.20
2023-05-07T00:07:43.133Z,67.20
2023-05-07T00:10:13.421Z,67.30
2023-05-07T00:12:41.560Z,67.50
2023-05-07T00:15:09.121Z,67.30
2023-05-07T00:17:36.107Z,67.10
2023-05-07T00:20:04.546Z,67.20
2023-05-07T00:22:31.995Z,67.30
2023-05-07T00:24:59.015Z,67.30
2023-05-07T00:27:26.433Z,67.30
2023-05-07T00:29:53.106Z,67.30
2023-05-07T00:32:19.705Z,67.30
2023-05-07T00:34:46.314Z,67.20
2023-05-07T00:37:13.105Z,67.30
2023-05-07T00:39:39.833Z,67.30
2023-05-07T00:42:06.518Z,67.40
2023-05-07T00:44:33.193Z,67.30
2023-05-07T00:47:03.628Z,67.40
2023-05-07T00:49:41.980Z,67.40
2023-05-07T00:52:14.792Z,67.40
2023-05-07T00:54:42.570Z,67.50
2023-05-07T00:57:12.016Z,67.50
2023-05-07T00:59:39.005Z,67.40
2023-05-07T01:02:05.850Z,67.00
2023-05-07T01:04:32.599Z,67.20
2023-05-07T01:07:01.698Z,67.00
2023-05-07T01:09:29.617Z,67.00
2023-05-07T01:11:58.278Z,67.00
2023-05-07T01:14:25.633Z,67.40
2023-05-07T01:16:52.380Z,67.40
2023-05-07T01:19:20.377Z,67.30
2023-05-07T01:21:49.190Z,67.30
2023-05-07T01:24:16.747Z,67.20
2023-05-07T01:26:45.224Z,67.00
2023-05-07T01:29:12.416Z,67.20
2023-05-07T01:31:40.838Z,67.30
2023-05-07T01:34:09.404Z,67.10
2023-05-07T01:36:39.483Z,67.40
2023-05-07T01:39:07.154Z,67.70
2023-05-07T01:41:33.950Z,67.80
2023-05-07T01:44:01.422Z,67.40
2023-05-07T01:46:28.903Z,67.10
2023-05-07T01:48:55.904Z,67.10
2023-05-07T01:51:23.292Z,67.20
2023-05-07T01:53:51.783Z,67.40
2023-05-07T01:56:19.477Z,67.30
2023-05-07T01:58:47.367Z,67.70
2023-05-07T02:01:15.093Z,67.60
2023-05-07T02:03:41.830Z,68.00
2023-05-07T02:06:09.403Z,67.80
2023-05-07T02:08:36.374Z,67.60
2023-05-07T02:11:03.122Z,67.40
2023-05-07T02:13:33.312Z,67.30
2023-05-07T02:16:00.055Z,67.20
2023-05-07T02:18:26.980Z,67.20
2023-05-07T02:20:53.627Z,67.20
2023-05-07T02:23:20.330Z,67.10
2023-05-07T02:25:47.080Z,67.20
2023-05-07T02:28:14.177Z,67.00
2023-05-07T02:30:41.330Z,67.30
2023-05-07T02:33:09.463Z,67.10
2023-05-07T02:35:36.414Z,67.20
2023-05-07T02:38:03.782Z,67.20
2023-05-07T02:40:30.598Z,67.60
2023-05-07T02:42:57.234Z,67.40
2023-05-07T02:45:23.958Z,67.60
2023-05-07T02:47:50.737Z,67.70
2023-05-07T02:50:17.581Z,67.70
2023-05-07T02:52:44.266Z,67.80
2023-05-07T02:55:11.562Z,67.90
2023-05-07T02:57:38.261Z,67.90
2023-05-07T03:00:14.314Z,67.70
2023-05-07T03:02:41.396Z,67.80
2023-05-07T03:05:08.309Z,67.80
2023-05-07T03:07:36.435Z,68.00
2023-05-07T03:10:03.873Z,67.80
2023-05-07T03:12:30.914Z,67.90
2023-05-07T03:14:57.603Z,67.80
2023-05-07T03:17:24.341Z,67.70
2023-05-07T03:19:51.000Z,67.80
2023-05-07T03:22:17.727Z,67.80
2023-05-07T03:24:44.380Z,67.80
2023-05-07T03:27:11.080Z,67.90
2023-05-07T03:29:37.747Z,67.80
2023-05-07T03:32:04.600Z,67.90
2023-05-07T03:34:31.311Z,67.90
2023-05-07T03:36:57.974Z,67.90
2023-05-07T03:39:24.694Z,68.00
2023-05-07T03:41:51.309Z,67.90
2023-05-07T03:44:17.952Z,68.00
2023-05-07T03:46:44.743Z,67.90
2023-05-07T03:49:11.448Z,68.10
2023-05-07T03:51:38.071Z,67.90
2023-05-07T03:54:04.802Z,68.00
2023-05-07T03:56:32.150Z,68.10
2023-05-07T03:58:58.779Z,68.10
2023-05-07T04:01:25.856Z,68.20
2023-05-07T04:03:52.621Z,68.20
2023-05-07T04:06:19.390Z,68.30
2023-05-07T04:08:46.014Z,68.40
2023-05-07T04:11:12.733Z,68.30
2023-05-07T04:13:39.354Z,68.30
2023-05-07T04:16:06.899Z,68.20
2023-05-07T04:18:33.592Z,68.40
2023-05-07T04:21:00.299Z,68.30
2023-05-07T04:23:27.006Z,68.40
2023-05-07T04:25:55.274Z,68.30
2023-05-07T04:28:21.983Z,68.30
2023-05-07T04:30:48.635Z,68.30
2023-05-07T04:33:19.126Z,68.40
2023-05-07T04:35:45.845Z,68.40
2023-05-07T04:38:12.513Z,68.40
2023-05-07T04:40:39.963Z,68.60
2023-05-07T04:43:06.754Z,68.50
2023-05-07T04:45:33.549Z,68.50
2023-05-07T04:48:00.286Z,68.60
2023-05-07T04:50:27.409Z,68.70
2023-05-07T04:52:54.313Z,68.60
2023-05-07T04:55:21.051Z,68.60
2023-05-07T04:57:48.118Z,68.70
2023-05-07T05:00:15.525Z,68.70
2023-05-07T05:02:42.440Z,68.70
2023-05-07T05:05:09.350Z,68.60
2023-05-07T05:07:36.003Z,68.60
2023-05-07T05:10:04.206Z,68.50
2023-05-07T05:12:31.580Z,68.70
2023-05-07T05:14:58.296Z,68.60
2023-05-07T05:17:25.062Z,68.70
2023-05-07T05:19:51.828Z,68.70
2023-05-07T05:22:18.472Z,68.70
2023-05-07T05:24:45.046Z,68.70
2023-05-07T05:27:11.708Z,68.60
2023-05-07T05:29:38.393Z,68.50
2023-05-07T05:32:05.415Z,68.70
2023-05-07T05:34:34.056Z,68.70
2023-05-07T05:37:00.825Z,68.90
2023-05-07T05:39:27.470Z,68.80
2023-05-07T05:41:54.134Z,68.40
2023-05-07T05:44:20.958Z,68.20
2023-05-07T05:46:47.803Z,68.20
2023-05-07T05:49:14.495Z,68.20
2023-05-07T05:51:41.234Z,68.20
2023-05-07T05:54:07.973Z,68.30
2023-05-07T05:56:34.765Z,68.30
2023-05-07T05:59:01.549Z,68.40
2023-05-07T06:01:28.213Z,68.20
2023-05-07T06:03:54.800Z,68.20
2023-05-07T06:06:21.476Z,68.60
2023-05-07T06:08:48.196Z,68.80
2023-05-07T06:11:14.885Z,68.80
2023-05-07T06:13:41.609Z,69.00
2023-05-07T06:16:08.358Z,68.90
2023-05-07T06:18:37.216Z,68.90
2023-05-07T06:21:03.962Z,68.80
2023-05-07T06:23:30.600Z,68.90
2023-05-07T06:25:57.531Z,68.80
2023-05-07T06:28:24.243Z,68.90
2023-05-07T06:30:51.007Z,68.90
2023-05-07T06:33:17.729Z,69.00
2023-05-07T06:35:44.456Z,69.20
2023-05-07T06:38:11.593Z,69.20
2023-05-07T06:40:38.195Z,69.10
2023-05-07T06:43:07.009Z,69.00
2023-05-07T06:45:33.622Z,68.90
2023-05-07T06:48:00.713Z,69.20
2023-05-07T06:50:27.512Z,68.50
2023-05-07T06:52:54.145Z,69.00
2023-05-07T06:55:20.959Z,68.80
2023-05-07T06:57:47.586Z,68.70
2023-05-07T07:00:14.797Z,68.50
2023-05-07T07:02:41.653Z,68.40
2023-05-07T07:05:08.644Z,68.40
2023-05-07T07:07:35.256Z,69.00
2023-05-07T07:10:01.883Z,68.60
2023-05-07T07:12:29.836Z,68.50
2023-05-07T07:14:56.543Z,68.20
2023-05-07T07:17:23.217Z,67.90
2023-05-07T07:19:49.979Z,67.90
2023-05-07T07:22:16.677Z,68.00
2023-05-07T07:24:43.372Z,68.20
2023-05-07T07:27:10.072Z,67.60
2023-05-07T07:29:36.745Z,67.70
2023-05-07T07:32:03.738Z,67.20
2023-05-07T07:34:31.067Z,67.60
2023-05-07T07:36:57.689Z,67.30
2023-05-07T07:39:24.295Z,67.30
2023-05-07T07:41:50.909Z,67.70
2023-05-07T07:44:18.238Z,67.70
2023-05-07T07:46:45.028Z,67.60
2023-05-07T07:49:11.740Z,67.90
2023-05-07T07:51:38.572Z,67.30
2023-05-07T07:54:05.450Z,67.80
2023-05-07T07:56:34.679Z,67.90
2023-05-07T07:59:01.838Z,67.80
2023-05-07T08:01:30.777Z,67.80
2023-05-07T08:03:59.749Z,67.60
2023-05-07T08:06:26.828Z,67.90
2023-05-07T08:08:53.787Z,67.80
2023-05-07T08:11:21.008Z,68.00
2023-05-07T08:13:47.860Z,67.70
2023-05-07T08:16:14.641Z,67.90
2023-05-07T08:18:41.376Z,67.90
2023-05-07T08:21:08.119Z,67.50
2023-05-07T08:23:35.638Z,67.10
2023-05-07T08:26:02.314Z,67.50
2023-05-07T08:28:29.011Z,67.10
2023-05-07T08:30:57.618Z,67.10
2023-05-07T08:33:24.326Z,67.20
2023-05-07T08:35:51.161Z,66.90
2023-05-07T08:38:17.773Z,67.10
2023-05-07T08:40:44.625Z,66.80
2023-05-07T08:43:14.616Z,66.70
2023-05-07T08:45:42.537Z,66.80
2023-05-07T08:48:17.265Z,66.70
2023-05-07T08:50:44.067Z,66.60
2023-05-07T08:53:10.818Z,66.40
2023-05-07T08:55:37.442Z,66.40
2023-05-07T08:58:04.973Z,66.40
2023-05-07T09:00:31.606Z,66.40
2023-05-07T09:02:58.410Z,66.40
2023-05-07T09:05:25.102Z,66.40
2023-05-07T09:07:53.944Z,66.80
2023-05-07T09:10:22.257Z,66.80
2023-05-07T09:12:49.264Z,66.90
2023-05-07T09:15:16.546Z,66.90
2023-05-07T09:17:44.606Z,67.00
2023-05-07T09:20:11.554Z,67.00
2023-05-07T09:22:38.927Z,67.00
2023-05-07T09:25:07.757Z,66.90
2023-05-07T09:27:34.520Z,66.90
2023-05-07T09:30:04.903Z,66.80
2023-05-07T09:32:34.201Z,66.70
2023-05-07T09:35:00.971Z,66.30
2023-05-07T09:37:27.804Z,66.30
2023-05-07T09:39:55.277Z,66.10
2023-05-07T09:42:27.564Z,66.10
2023-05-07T09:44:54.447Z,66.00
2023-05-07T09:47:23.286Z,65.90
2023-05-07T09:49:50.839Z,65.60
2023-05-07T09:52:18.058Z,65.60
2023-05-07T09:54:45.951Z,65.10
2023-05-07T09:57:12.912Z,64.00
2023-05-07T09:59:40.555Z,64.10
2023-05-07T10:02:11.359Z,63.70
2023-05-07T10:04:38.370Z,63.90
2023-05-07T10:07:06.415Z,64.30
2023-05-07T10:09:33.351Z,64.70
2023-05-07T10:12:00.240Z,65.00
2023-05-07T10:14:29.489Z,63.80
2023-05-07T10:16:57.253Z,63.40
2023-05-07T10:19:25.134Z,63.90
2023-05-07T10:22:05.881Z,64.10
2023-05-07T10:24:37.836Z,62.90
2023-05-07T10:27:13.553Z,63.00
2023-05-07T10:30:16.176Z,63.00
2023-05-07T10:32:51.773Z,63.10
2023-05-07T10:35:27.013Z,62.60
2023-05-07T10:37:53.866Z,62.50
2023-05-07T10:40:22.156Z,61.00
2023-05-07T10:43:01.624Z,61.90
2023-05-07T10:45:29.758Z,62.40
2023-05-07T10:48:28.657Z,63.10
2023-05-07T10:51:22.944Z,63.00
2023-05-07T10:53:49.827Z,62.20
2023-05-07T10:56:19.738Z,62.10
2023-05-07T10:58:46.500Z,62.20
2023-05-07T11:01:15.428Z,62.10
2023-05-07T11:04:27.083Z,61.90
2023-05-07T11:07:13.361Z,61.90
2023-05-07T11:10:02.568Z,61.90
2023-05-07T11:12:42.220Z,61.70
2023-05-07T11:15:10.959Z,61.90
2023-05-07T11:17:59.905Z,62.10
2023-05-07T11:20:45.504Z,62.40
2023-05-07T11:23:34.093Z,62.70
2023-05-07T11:26:05.942Z,62.60
2023-05-07T11:28:41.550Z,61.60
2023-05-07T11:31:09.112Z,62.10
2023-05-07T11:33:37.168Z,61.10
2023-05-07T11:36:04.732Z,61.70
2023-05-07T11:38:35.809Z,60.90
2023-05-07T11:41:03.519Z,61.80
2023-05-07T11:43:30.206Z,61.00
2023-05-07T11:46:07.673Z,61.60
2023-05-07T11:48:34.599Z,61.70
2023-05-07T11:51:06.308Z,61.80
2023-05-07T11:53:39.417Z,62.30
2023-05-07T11:56:15.687Z,62.00
2023-05-07T11:58:43.234Z,61.70
2023-05-07T12:01:11.431Z,61.80
2023-05-07T12:03:40.717Z,61.50
2023-05-07T12:06:07.822Z,62.00
2023-05-07T12:08:37.114Z,61.40
2023-05-07T12:11:03.706Z,61.00
2023-05-07T12:13:30.588Z,61.00
2023-05-07T12:15:57.689Z,62.30
2023-05-07T12:18:24.568Z,62.40
2023-05-07T12:20:51.661Z,62.40
2023-05-07T12:23:19.218Z,62.30
2023-05-07T12:25:49.202Z,62.20
2023-05-07T12:28:17.662Z,61.90
2023-05-07T12:30:49.439Z,61.80
2023-05-07T12:33:22.584Z,61.30
2023-05-07T12:35:49.268Z,61.30
2023-05-07T12:38:18.245Z,61.40
2023-05-07T12:40:54.812Z,61.70
2023-05-07T12:43:24.984Z,61.20
2023-05-07T12:45:53.143Z,61.00
2023-05-07T12:48:21.310Z,60.90
2023-05-07T12:50:52.066Z,61.10
2023-05-07T12:53:22.345Z,61.00
2023-05-07T12:55:51.192Z,60.80
2023-05-07T12:58:24.292Z,60.70
2023-05-07T13:00:52.191Z,60.50
2023-05-07T13:03:25.694Z,60.60
2023-05-07T13:05:53.349Z,60.40
2023-05-07T13:08:29.182Z,60.50
2023-05-07T13:10:56.098Z,60.60
2023-05-07T13:13:23.394Z,60.90
2023-05-07T13:15:50.122Z,61.00
2023-05-07T13:18:16.975Z,61.40
2023-05-07T13:20:43.882Z,61.50
2023-05-07T13:23:10.663Z,61.80
2023-05-07T13:25:39.114Z,62.00
2023-05-07T13:28:10.689Z,62.20
2023-05-07T13:30:38.490Z,62.40
2023-05-07T13:33:05.175Z,62.50
2023-05-07T13:35:31.877Z,62.50
2023-05-07T13:37:58.622Z,62.80
2023-05-07T13:40:25.492Z,63.10
2023-05-07T13:42:52.347Z,63.20
2023-05-07T13:45:19.999Z,63.30
2023-05-07T13:47:47.720Z,63.10
2023-05-07T13:50:17.767Z,63.40
2023-05-07T13:52:51.292Z,63.50
2023-05-07T13:55:25.008Z,63.30
2023-05-07T13:58:06.759Z,63.40
2023-05-07T14:00:33.892Z,63.60
2023-05-07T14:03:00.809Z,63.70
2023-05-07T14:05:30.536Z,63.70
2023-05-07T14:07:59.216Z,63.50
2023-05-07T14:10:26.241Z,63.70
2023-05-07T14:12:53.667Z,63.80
2023-05-07T14:15:20.477Z,63.60
2023-05-07T14:17:47.856Z,63.60
2023-05-07T14:20:14.797Z,63.60
2023-05-07T14:22:41.742Z,63.40
2023-05-07T14:25:10.396Z,63.50
2023-05-07T14:27:37.050Z,63.50
2023-05-07T14:30:03.886Z,63.70
2023-05-07T14:32:30.653Z,63.60
2023-05-07T14:34:57.407Z,63.70
2023-05-07T14:37:25.070Z,63.50
2023-05-07T14:39:51.911Z,63.30
2023-05-07T14:42:19.031Z,63.20
2023-05-07T14:44:46.495Z,63.50
2023-05-07T14:47:13.802Z,63.50
2023-05-07T14:49:41.618Z,63.50
2023-05-07T14:52:09.967Z,63.60
2023-05-07T14:54:38.383Z,63.50
2023-05-07T14:57:07.729Z,63.40
2023-05-07T14:59:34.805Z,63.40
2023-05-07T15:02:03.687Z,63.20
2023-05-07T15:04:31.339Z,63.30
2023-05-07T15:06:58.052Z,63.40
2023-05-07T15:09:25.716Z,63.40
2023-05-07T15:11:52.601Z,63.40
2023-05-07T15:14:19.457Z,63.20
2023-05-07T15:16:46.713Z,63.20
2023-05-07T15:19:15.738Z,63.20
2023-05-07T15:21:42.451Z,63.10
2023-05-07T15:24:10.216Z,63.60
2023-05-07T15:26:37.275Z,63.70
2023-05-07T15:29:09.092Z,63.70
2023-05-07T15:31:35.980Z,63.50
2023-05-07T15:34:02.765Z,63.50
2023-05-07T15:36:29.549Z,63.70
2023-05-07T15:38:56.225Z,63.50
2023-05-07T15:41:22.853Z,63.20
2023-05-07T15:43:51.593Z,63.00
2023-05-07T15:46:24.440Z,63.00
2023-05-07T15:48:54.676Z,62.90
2023-05-07T15:51:22.110Z,62.90
2023-05-07T15:53:49.381Z,63.00
2023-05-07T15:56:16.042Z,63.10
2023-05-07T15:58:42.781Z,63.10
2023-05-07T16:01:09.510Z,63.20
2023-05-07T16:03:36.353Z,62.80
2023-05-07T16:06:03.237Z,62.70
2023-05-07T16:08:29.922Z,62.70
2023-05-07T16:10:56.652Z,62.90
2023-05-07T16:13:24.773Z,62.90
2023-05-07T16:15:57.851Z,62.90
2023-05-07T16:18:24.639Z,62.90
2023-05-07T16:20:51.362Z,63.00
2023-05-07T16:23:18.120Z,62.80
2023-05-07T16:25:44.733Z,62.70
2023-05-07T16:28:11.553Z,62.50
2023-05-07T16:30:38.218Z,62.70
2023-05-07T16:33:04.952Z,62.50
2023-05-07T16:35:31.681Z,62.60
2023-05-07T16:37:58.292Z,62.60
2023-05-07T16:40:25.531Z,62.60
2023-05-07T16:42:54.753Z,62.60
2023-05-07T16:45:23.233Z,62.70
2023-05-07T16:47:50.148Z,62.70
2023-05-07T16:50:17.082Z,62.80
2023-05-07T16:52:43.699Z,62.80
2023-05-07T16:55:10.828Z,62.80
2023-05-07T16:57:37.984Z,62.80
2023-05-07T17:00:07.393Z,62.80
2023-05-07T17:02:35.613Z,62.80
2023-05-07T17:05:02.477Z,62.90
2023-05-07T17:07:29.116Z,62.90
2023-05-07T17:09:55.770Z,63.00
2023-05-07T17:12:22.697Z,63.00
2023-05-07T17:14:49.462Z,63.00
2023-05-07T17:17:16.142Z,63.00
2023-05-07T17:19:42.820Z,63.10
2023-05-07T17:22:09.501Z,63.00
2023-05-07T17:24:36.532Z,63.00
2023-05-07T17:27:03.139Z,63.10
2023-05-07T17:29:32.821Z,63.10
2023-05-07T17:31:59.615Z,63.20
2023-05-07T17:34:26.479Z,63.20
2023-05-07T17:36:53.088Z,63.30
2023-05-07T17:39:19.683Z,63.40
2023-05-07T17:41:46.582Z,63.30
2023-05-07T17:44:13.396Z,63.30
2023-05-07T17:46:40.430Z,63.50
2023-05-07T17:49:07.135Z,63.60
2023-05-07T17:51:45.950Z,63.60
2023-05-07T17:54:20.028Z,63.80
2023-05-07T17:56:46.727Z,63.90
2023-05-07T17:59:13.699Z,64.00
2023-05-07T18:01:42.119Z,64.20
2023-05-07T18:04:09.114Z,64.40
2023-05-07T18:06:36.023Z,64.50
2023-05-07T18:09:02.962Z,64.50
2023-05-07T18:11:32.200Z,64.70
2023-05-07T18:13:59.452Z,64.70
2023-05-07T18:16:26.438Z,64.90
2023-05-07T18:18:53.301Z,64.90
2023-05-07T18:21:20.054Z,64.90
2023-05-07T18:23:47.690Z,65.00
2023-05-07T18:26:14.474Z,65.10
2023-05-07T18:28:41.490Z,65.20
2023-05-07T18:31:08.333Z,65.20
2023-05-07T18:33:35.121Z,65.20
2023-05-07T18:36:01.748Z,65.40
2023-05-07T18:38:28.453Z,65.30
2023-05-07T18:41:04.269Z,65.30
2023-05-07T18:43:31.260Z,65.50
2023-05-07T18:45:58.541Z,65.40
2023-05-07T18:48:25.446Z,65.40
2023-05-07T18:50:52.525Z,65.40
2023-05-07T18:53:19.358Z,65.50
2023-05-07T18:55:52.757Z,65.50
2023-05-07T18:58:20.190Z,65.70
2023-05-07T19:00:49.912Z,65.60
2023-05-07T19:03:17.279Z,65.70
2023-05-07T19:05:45.384Z,65.70
2023-05-07T19:08:12.533Z,65.80
2023-05-07T19:10:39.418Z,65.70
2023-05-07T19:13:06.558Z,65.70
2023-05-07T19:15:43.342Z,65.70
2023-05-07T19:18:10.146Z,65.70
2023-05-07T19:20:36.836Z,65.60
2023-05-07T19:23:03.524Z,65.70
2023-05-07T19:25:30.245Z,65.70
2023-05-07T19:27:57.186Z,65.70
2023-05-07T19:30:23.897Z,65.70
2023-05-07T19:32:50.644Z,65.70
2023-05-07T19:35:17.364Z,65.80
2023-05-07T19:37:43.978Z,65.80
2023-05-07T19:40:11.271Z,65.80
2023-05-07T19:42:37.988Z,65.90
2023-05-07T19:45:05.653Z,65.80
2023-05-07T19:47:32.461Z,65.90
2023-05-07T19:49:59.199Z,65.80
2023-05-07T19:52:26.715Z,65.80
2023-05-07T19:54:53.876Z,65.90
2023-05-07T19:57:20.652Z,65.90
2023-05-07T19:59:47.401Z,66.10
2023-05-07T20:02:15.213Z,66.10
2023-05-07T20:04:42.152Z,66.10
2023-05-07T20:07:08.872Z,66.20
2023-05-07T20:09:35.486Z,66.30
2023-05-07T20:12:02.289Z,66.30
2023-05-07T20:14:28.968Z,66.30
2023-05-07T20:16:55.631Z,66.40
2023-05-07T20:19:22.369Z,66.30
2023-05-07T20:21:49.090Z,66.30
2023-05-07T20:24:16.741Z,66.40
2023-05-07T20:26:43.457Z,66.40
2023-05-07T20:29:10.255Z,66.50
2023-05-07T20:31:37.035Z,66.50
2023-05-07T20:34:03.777Z,66.50
2023-05-07T20:36:30.437Z,66.40
2023-05-07T20:38:57.184Z,66.40
2023-05-07T20:41:25.370Z,66.60
2023-05-07T20:43:52.304Z,66.60
2023-05-07T20:46:22.498Z,66.70
2023-05-07T20:48:49.743Z,66.50
2023-05-07T20:51:16.467Z,66.50
2023-05-07T20:53:47.818Z,66.50
2023-05-07T20:56:15.328Z,66.60
2023-05-07T20:58:42.051Z,66.60
2023-05-07T21:01:08.884Z,66.70
2023-05-07T21:03:35.748Z,66.80
2023-05-07T21:06:03.141Z,66.90
2023-05-07T21:08:30.377Z,67.00
2023-05-07T21:10:57.306Z,67.10
2023-05-07T21:13:24.058Z,67.10
2023-05-07T21:15:50.812Z,67.10
2023-05-07T21:18:18.720Z,67.10
2023-05-07T21:20:45.583Z,67.60
2023-05-07T21:23:12.370Z,67.50
2023-05-07T21:25:39.299Z,67.40
2023-05-07T21:28:08.520Z,67.50
2023-05-07T21:30:36.027Z,67.50
2023-05-07T21:33:03.131Z,67.30
2023-05-07T21:35:30.118Z,67.30
2023-05-07T21:37:56.766Z,67.20
2023-05-07T21:40:23.352Z,67.30
2023-05-07T21:42:50.044Z,67.40
2023-05-07T21:45:16.834Z,67.30
2023-05-07T21:47:43.507Z,67.50
2023-05-07T21:50:11.016Z,67.40
2023-05-07T21:52:38.046Z,67.50
2023-05-07T21:55:05.178Z,67.50
2023-05-07T21:57:31.879Z,67.50
2023-05-07T21:59:58.504Z,67.60
2023-05-07T22:02:25.802Z,67.60
2023-05-07T22:04:52.686Z,67.40
2023-05-07T22:07:19.357Z,67.50
2023-05-07T22:09:46.079Z,67.60
2023-05-07T22:12:12.735Z,67.50
2023-05-07T22:14:39.342Z,67.60
2023-05-07T22:17:05.980Z,67.60
2023-05-07T22:19:32.606Z,67.50
2023-05-07T22:21:59.632Z,67.60
2023-05-07T22:24:26.339Z,67.40
2023-05-07T22:26:53.045Z,67.30
2023-05-07T22:29:21.170Z,67.40
2023-05-07T22:31:47.818Z,67.40
2023-05-07T22:34:14.568Z,67.40
2023-05-07T22:36:41.353Z,67.40
2023-05-07T22:39:09.867Z,67.40
2023-05-07T22:41:36.818Z,67.40
2023-05-07T22:44:03.546Z,67.40
2023-05-07T22:46:30.358Z,67.30
2023-05-07T22:48:57.016Z,67.30
2023-05-07T22:51:23.659Z,67.20
2023-05-07T22:53:50.297Z,67.20
2023-05-07T22:56:16.874Z,67.30
2023-05-07T22:58:43.553Z,67.20
2023-05-07T23:01:18.564Z,67.30
2023-05-07T23:03:45.406Z,67.60
2023-05-07T23:06:12.715Z,67.30
2023-05-07T23:08:39.482Z,67.40
2023-05-07T23:11:06.213Z,67.40
2023-05-07T23:13:32.825Z,67.40
2023-05-07T23:15:59.467Z,67.50
2023-05-07T23:18:27.988Z,67.50
2023-05-07T23:20:54.869Z,67.50
2023-05-07T23:23:21.650Z,67.50
2023-05-07T23:25:51.614Z,67.50
2023-05-07T23:28:18.274Z,67.70
2023-05-07T23:30:45.135Z,67.60
2023-05-07T23:33:11.989Z,67.60
2023-05-07T23:35:38.643Z,67.70
2023-05-07T23:38:05.294Z,67.70
2023-05-07T23:40:31.866Z,67.80
2023-05-07T23:42:58.564Z,67.80
2023-05-07T23:45:25.286Z,67.90
2023-05-07T23:47:52.285Z,68.00
2023-05-07T23:50:19.009Z,68.10
2023-05-07T23:52:45.733Z,68.10
2023-05-07T23:55:13.679Z,68.10
2023-05-07T23:57:40.371Z,68.10
